createdAt,value
2019-05-17T08:50:53.306Z,0
2019-05-17T08:55:22.316Z,0
2019-05-17T08:55:42.875Z,0
2019-05-17T08:56:10.778Z,32.5
2019-05-17T08:58:53.304Z,0
2019-05-17T09:02:11.558Z,33.1
2019-05-17T09:06:15.191Z,31.9
2019-05-17T09:11:20.329Z,31.7
2019-05-17T09:16:24.222Z,32.1
2019-05-17T09:26:32.180Z,32.2
2019-05-17T09:31:36.086Z,32.1
2019-05-17T09:36:41.598Z,32
2019-05-17T09:41:45.517Z,31.9
2019-05-17T09:46:51.085Z,32
2019-05-17T09:51:55.106Z,32.3
2019-05-17T09:57:01.209Z,32.2
2019-05-17T10:07:10.878Z,32.4
2019-05-17T10:12:14.855Z,32.3
2019-05-17T10:22:51.120Z,32.4
2019-05-17T10:27:55.034Z,32.3
2019-05-17T10:33:00.669Z,32.2
2019-05-17T10:38:04.763Z,32.3
2019-05-17T10:43:10.764Z,32.5
2019-05-17T10:46:41.348Z,32.5
2019-05-17T10:51:56.851Z,32.5
2019-05-17T10:57:03.180Z,32.6
2019-05-17T11:02:07.006Z,32.6
2019-05-17T11:07:13.129Z,32.4
2019-05-17T11:12:17.062Z,32.5
2019-05-17T11:22:24.906Z,32.2
2019-05-17T11:27:28.834Z,32.1
2019-05-17T11:32:32.890Z,32
2019-05-17T11:37:36.886Z,31.8
2019-05-17T11:42:40.736Z,31.7
2019-05-17T11:47:44.627Z,31.8
2019-05-17T11:52:48.477Z,31.6
2019-05-17T11:57:52.553Z,31.6
2019-05-17T12:02:56.063Z,31.6
2019-05-17T12:07:59.896Z,31.5
2019-05-17T12:13:03.853Z,31.6
2019-05-17T12:18:07.693Z,31.8
2019-05-17T12:23:11.534Z,31.9
2019-05-17T12:28:15.520Z,31.9
2019-05-17T12:33:19.367Z,31.9
2019-05-17T12:43:26.897Z,32
2019-05-17T12:48:30.737Z,32
2019-05-17T12:54:31.991Z,32.2
2019-05-17T12:59:08.240Z,32.2
2019-05-17T13:04:18.300Z,32.3
2019-05-17T13:14:38.656Z,32.6
2019-05-17T13:19:48.749Z,32.5
2019-05-17T13:30:09.080Z,32.8
2019-05-17T13:35:19.145Z,32.6
2019-05-17T13:45:43.917Z,32.2
2019-05-17T13:50:54.826Z,32
2019-05-17T14:01:15.143Z,31.7
2019-05-17T14:06:25.222Z,31.5
2019-05-17T14:16:44.875Z,31.5
2019-05-17T14:21:55.180Z,31.4
2019-05-17T14:27:05.430Z,31.4
2019-05-17T14:32:15.608Z,31.3
2019-05-17T14:37:25.879Z,31.3
2019-05-17T14:42:36.108Z,31.3
2019-05-17T14:47:46.312Z,31.2
2019-05-17T14:52:56.400Z,31.2
2019-05-17T14:58:06.536Z,31.4
2019-05-17T15:03:16.597Z,31.4
2019-05-17T15:08:26.670Z,31.4
2019-05-17T15:13:37.057Z,31.1
2019-05-17T15:18:46.733Z,31.1
2019-05-17T15:23:56.798Z,31.2
2019-05-17T15:29:06.912Z,31.3
2019-05-17T15:34:16.978Z,31.2
2019-05-17T15:39:27.051Z,31.1
2019-05-17T15:44:36.735Z,31.4
2019-05-17T16:57:46.697Z,26.6
2019-05-17T17:07:12.243Z,26.3
2019-05-17T17:12:21.125Z,25.8
2019-05-17T17:17:30.289Z,25.5
2019-05-17T17:22:39.444Z,25.3
2019-05-17T17:27:48.882Z,25.3
2019-05-17T17:32:57.761Z,25.2
2019-05-17T17:38:06.919Z,25.2
2019-05-17T17:43:16.098Z,25.2
2019-05-17T17:48:25.527Z,25.2
2019-05-17T17:53:34.408Z,25.2
2019-05-17T17:58:43.873Z,25.2
2019-05-17T18:03:52.747Z,25
2019-05-17T18:09:02.302Z,24.6
2019-05-17T18:14:14.474Z,24.5
2019-05-17T18:19:23.873Z,24.4
2019-05-17T18:24:32.738Z,24.5
2019-05-17T18:29:41.899Z,24.6
2019-05-17T18:34:50.780Z,24.6
2019-05-17T18:40:00.227Z,24.7
2019-05-17T18:45:09.101Z,24.7
2019-05-17T18:50:18.257Z,24.7
2019-05-17T18:55:27.423Z,24.7
2019-05-17T19:00:36.868Z,24.8
2019-05-17T19:05:46.322Z,24.7
2019-05-17T19:10:56.857Z,24.8
2019-05-17T19:16:06.007Z,24.8
2019-05-17T19:21:15.168Z,24.9
2019-05-17T19:26:24.611Z,24.9
2019-05-17T19:31:34.049Z,24.9
2019-05-17T19:36:43.484Z,24.9
2019-05-17T19:41:52.919Z,24.9
2019-05-17T19:47:01.812Z,24.9
2019-05-17T19:52:10.968Z,25
2019-05-17T19:57:20.296Z,25
2019-05-17T20:02:29.773Z,25
2019-05-17T20:07:39.973Z,25
2019-05-17T20:12:49.138Z,25
2019-05-17T20:17:58.587Z,25
2019-05-17T20:23:07.473Z,25
2019-05-17T20:28:16.922Z,25
2019-05-17T20:33:26.359Z,25
2019-05-17T20:38:35.520Z,25
2019-05-17T20:43:45.066Z,25
2019-05-17T20:48:55.378Z,25
2019-05-17T20:54:04.540Z,25
2019-05-17T20:59:13.713Z,25
2019-05-17T21:04:23.440Z,25
2019-05-17T21:09:32.593Z,25
2019-05-17T21:14:41.765Z,25
2019-05-17T21:19:51.214Z,25
2019-05-17T21:25:00.949Z,25
2019-05-17T21:30:10.103Z,25
2019-05-17T21:35:19.269Z,25
2019-05-17T21:40:28.440Z,25
2019-05-17T21:45:37.889Z,25
2019-05-17T21:50:46.768Z,25
2019-05-17T21:55:55.935Z,25
2019-05-17T22:01:05.099Z,25
2019-05-17T22:06:14.560Z,25.1
2019-05-17T22:11:23.714Z,25.1
2019-05-17T22:16:32.874Z,25.1
2019-05-17T22:21:42.041Z,25.1
2019-05-17T22:26:51.480Z,25.1
2019-05-17T22:32:00.922Z,25.1
2019-05-17T22:37:09.811Z,25.1
2019-05-17T22:42:18.692Z,25.1
2019-05-17T22:47:27.856Z,25.1
2019-05-17T22:52:37.293Z,25.1
2019-05-17T22:57:46.473Z,25.1
2019-05-17T23:02:55.355Z,25.1
2019-05-17T23:08:04.537Z,25.1
2019-05-17T23:13:13.407Z,25.1
2019-05-17T23:18:23.286Z,25.1
2019-05-17T23:23:32.158Z,25.1
2019-05-17T23:28:41.325Z,25.1
2019-05-17T23:33:50.485Z,25.1
2019-05-17T23:38:59.649Z,25.1
2019-05-17T23:44:08.535Z,25.1
2019-05-17T23:49:17.419Z,25.1
2019-05-17T23:54:26.859Z,25.1
2019-05-17T23:59:36.021Z,25.1
